Meads, Kentucky
Current Conditions -  °F | °C
As of 3:35 PM on Thursday 27 Nov 2014 (Local Time) from KDWU Reporting Station
Overcast Overcast  
Wind Chill: 28°   Ceiling: 4600
Heat Index: 36°   Visibility: 9mi
Dew Point: 19°   Wind: 12mph
Humidity: 52%   Direction: 330°NNW
Pressure: 30.26"   Gusts: 18mph
Location:  38.4744°N, 82.6532°W
Report Text: KDWU 272035Z AUTO 33010G16KT 270V340 9SM SCT037 OVC046 02/M07 A3026 RMK AO1
Loading
Personal Weather Stations






























Interactive Weather Map New forecast layout! Learn more

10-Day Weather Forecast

Advertisements
Track Severe Weather on mobile